Time;durP1;ratioP1;P1;durP2;ratioP2;P2;SDS_P1;SDS_P2;PMS_P1;PMS_P2;Temp;Humidity;BMP_temperature;BMP_pressure;BME280_temperature;BME280_humidity;BME280_pressure;Samples;Min_cycle;Max_cycle;Signal;HPM_P1;HPM_P2
2022/01/27 00:00:37;;;;;;;;;;;14.40;55.90;;;;;;5093262;28;19957;-72
2022/01/27 00:03:22;;;;;;;;;;;14.30;55.90;;;;;;5093165;28;19920;-73
2022/01/27 00:05:52;;;;;;;;;;;14.30;55.90;;;;;;5093150;28;19925;-72
2022/01/27 00:08:23;;;;;;;;;;;14.30;55.90;;;;;;5093363;28;20019;-71
2022/01/27 00:10:55;;;;;;;;;;;14.30;55.90;;;;;;5094216;28;19924;-72
2022/01/27 00:13:27;;;;;;;;;;;14.30;55.90;;;;;;5092990;28;19928;-72
2022/01/27 00:16:00;;;;;;;;;;;14.30;56.00;;;;;;5093070;28;19924;-73
2022/01/27 00:18:29;;;;;;;;;;;14.20;55.90;;;;;;5093190;28;20385;-73
2022/01/27 00:20:56;;;;;;;;;;;14.20;56.00;;;;;;5093127;28;20027;-73
2022/01/27 00:23:22;;;;;;;;;;;14.20;55.90;;;;;;5092605;28;19930;-73
2022/01/27 00:25:49;;;;;;;;;;;14.20;56.00;;;;;;5092686;28;19924;-72
2022/01/27 00:28:18;;;;;;;;;;;14.20;56.00;;;;;;5093946;28;20007;-72
2022/01/27 00:30:44;;;;;;;;;;;14.20;56.00;;;;;;5096740;28;19938;-72
2022/01/27 00:33:11;;;;;;;;;;;14.20;56.00;;;;;;5113077;28;19930;-73
2022/01/27 00:35:37;;;;;;;;;;;14.20;56.00;;;;;;5113725;28;19946;-71
2022/01/27 00:38:04;;;;;;;;;;;14.20;56.00;;;;;;5114088;28;20011;-72
2022/01/27 00:40:30;;;;;;;;;;;14.20;56.10;;;;;;5096089;28;19930;-73
2022/01/27 00:42:57;;;;;;;;;;;14.20;56.00;;;;;;5113078;28;20295;-72
2022/01/27 00:45:28;;;;;;;;;;;14.10;56.00;;;;;;5112751;28;20010;-72
2022/01/27 00:47:54;;;;;;;;;;;14.10;56.00;;;;;;5112910;28;19930;-73
2022/01/27 00:50:21;;;;;;;;;;;14.10;56.00;;;;;;5113756;28;19963;-72
2022/01/27 00:52:48;;;;;;;;;;;14.10;56.00;;;;;;5095659;28;19968;-72
2022/01/27 00:55:15;;;;;;;;;;;14.10;56.00;;;;;;5095583;28;20345;-72
2022/01/27 00:57:59;;;;;;;;;;;14.10;56.00;;;;;;5112461;28;20303;-70
2022/01/27 01:00:32;;;;;;;;;;;14.10;56.00;;;;;;5113709;28;20023;-72
2022/01/27 01:03:03;;;;;;;;;;;14.10;56.00;;;;;;5112644;28;20398;-72
2022/01/27 01:05:45;;;;;;;;;;;14.10;56.00;;;;;;5112380;28;19927;-72
2022/01/27 01:08:52;;;;;;;;;;;14.10;56.00;;;;;;5112455;28;20396;-72
2022/01/27 01:11:29;;;;;;;;;;;14.00;55.90;;;;;;5113454;28;19931;-72
2022/01/27 01:16:52;;;;;;;;;;;14.10;56.10;;;;;;5111969;28;19920;-72
2022/01/27 01:19:30;;;;;;;;;;;14.10;56.00;;;;;;5112347;28;19930;-72
2022/01/27 01:29:21;;;;;;;;;;;14.10;56.10;;;;;;5112427;28;19924;-72
2022/01/27 01:30:32;;;;;;;;;;;14.10;56.00;;;;;;5111708;28;19916;-70
2022/01/27 01:33:03;;;;;;;;;;;14.10;56.00;;;;;;5091678;28;20401;-72
2022/01/27 01:35:46;;;;;;;;;;;14.10;56.00;;;;;;5092975;28;19924;-72
2022/01/27 01:38:13;;;;;;;;;;;14.10;56.00;;;;;;5091856;28;20292;-72
2022/01/27 01:40:39;;;;;;;;;;;14.10;56.00;;;;;;5092585;28;20369;-72
2022/01/27 01:43:08;;;;;;;;;;;14.10;56.00;;;;;;5090753;28;20299;-72
2022/01/27 01:45:34;;;;;;;;;;;14.10;56.00;;;;;;5092027;28;20018;-72
2022/01/27 01:48:02;;;;;;;;;;;14.10;56.00;;;;;;5092589;28;19924;-72
2022/01/27 01:50:29;;;;;;;;;;;14.10;56.00;;;;;;5091607;28;20565;-72
2022/01/27 01:52:56;;;;;;;;;;;14.10;55.90;;;;;;5091602;28;19928;-72
2022/01/27 01:55:23;;;;;;;;;;;14.10;55.90;;;;;;5090713;28;19930;-69
2022/01/27 01:57:50;;;;;;;;;;;14.10;55.90;;;;;;5091579;28;19932;-72
2022/01/27 02:00:17;;;;;;;;;;;14.10;55.90;;;;;;5091452;28;20370;-72
2022/01/27 02:02:43;;;;;;;;;;;14.20;55.90;;;;;;5091204;28;20014;-71
2022/01/27 02:05:11;;;;;;;;;;;14.10;55.80;;;;;;5091324;28;20011;-72
2022/01/27 02:07:49;;;;;;;;;;;14.20;55.90;;;;;;5090836;28;19924;-73
2022/01/27 02:10:31;;;;;;;;;;;14.20;55.90;;;;;;5092596;28;19942;-72
2022/01/27 02:18:39;;;;;;;;;;;14.20;55.80;;;;;;5091278;28;19920;-72
2022/01/27 02:21:06;;;;;;;;;;;14.20;55.80;;;;;;5092343;28;20026;-72
2022/01/27 02:23:33;;;;;;;;;;;14.20;55.80;;;;;;5090978;28;19930;-72
2022/01/27 02:26:00;;;;;;;;;;;14.20;55.80;;;;;;5091038;28;19924;-73
2022/01/27 02:28:26;;;;;;;;;;;14.20;55.70;;;;;;5091084;28;19934;-71
2022/01/27 02:30:53;;;;;;;;;;;14.20;55.60;;;;;;5094979;28;20447;-73
2022/01/27 02:33:28;;;;;;;;;;;14.30;55.70;;;;;;5111115;28;19930;-72
2022/01/27 02:35:55;;;;;;;;;;;14.30;55.80;;;;;;5114509;28;19928;-72
2022/01/27 02:38:23;;;;;;;;;;;14.30;55.70;;;;;;5116494;28;19923;-72
2022/01/27 02:40:50;;;;;;;;;;;14.30;55.70;;;;;;5116098;28;19924;-72
2022/01/27 02:43:17;;;;;;;;;;;14.30;55.70;;;;;;5115300;28;19930;-71
2022/01/27 02:45:45;;;;;;;;;;;14.30;55.70;;;;;;5116096;28;19924;-72
2022/01/27 02:48:12;;;;;;;;;;;14.30;55.70;;;;;;5115298;28;19970;-72
2022/01/27 02:50:39;;;;;;;;;;;14.30;55.70;;;;;;5115302;28;20279;-71
2022/01/27 02:53:07;;;;;;;;;;;14.60;55.80;;;;;;5115876;28;20010;-72
2022/01/27 02:55:35;;;;;;;;;;;14.30;55.60;;;;;;5114852;28;19930;-72
2022/01/27 02:58:02;;;;;;;;;;;14.30;55.60;;;;;;5116084;28;20027;-71
2022/01/27 03:00:28;;;;;;;;;;;14.40;55.70;;;;;;5116065;28;19924;-72
2022/01/27 03:02:55;;;;;;;;;;;14.30;55.60;;;;;;5115763;28;19966;-71
2022/01/27 03:05:22;;;;;;;;;;;14.40;55.70;;;;;;5114826;28;19963;-72
2022/01/27 03:07:48;;;;;;;;;;;14.40;55.70;;;;;;5114881;28;20399;-72
2022/01/27 03:10:15;;;;;;;;;;;14.40;55.60;;;;;;5114846;28;19923;-72
2022/01/27 03:12:43;;;;;;;;;;;14.40;55.60;;;;;;5114491;28;20011;-72
2022/01/27 03:15:11;;;;;;;;;;;14.40;55.60;;;;;;5115566;28;20022;-72
2022/01/27 03:17:38;;;;;;;;;;;14.40;55.60;;;;;;5114010;28;20399;-71
2022/01/27 03:20:05;;;;;;;;;;;14.40;55.60;;;;;;5114685;28;20011;-72
2022/01/27 03:22:31;;;;;;;;;;;14.40;55.60;;;;;;5114647;28;20002;-72
2022/01/27 03:24:58;;;;;;;;;;;14.40;55.60;;;;;;5114244;28;20332;-72
2022/01/27 03:27:26;;;;;;;;;;;14.40;55.60;;;;;;5115422;28;19970;-72
2022/01/27 03:29:54;;;;;;;;;;;14.40;55.50;;;;;;5115554;28;19924;-72
2022/01/27 03:32:21;;;;;;;;;;;14.40;55.60;;;;;;5098255;28;19928;-73
2022/01/27 03:34:47;;;;;;;;;;;14.40;55.50;;;;;;5094855;28;20018;-72
2022/01/27 03:37:14;;;;;;;;;;;14.40;55.50;;;;;;5093541;28;20015;-71
2022/01/27 03:39:42;;;;;;;;;;;14.40;55.50;;;;;;5093775;28;20490;-72
2022/01/27 03:42:09;;;;;;;;;;;14.40;55.50;;;;;;5093931;28;19930;-72
2022/01/27 03:44:36;;;;;;;;;;;14.40;55.60;;;;;;5094724;28;19935;-72
2022/01/27 03:47:04;;;;;;;;;;;14.40;56.10;;;;;;5092317;28;19924;-73
2022/01/27 03:49:30;;;;;;;;;;;14.40;55.50;;;;;;5093686;28;20117;-71
2022/01/27 03:52:00;;;;;;;;;;;14.40;55.50;;;;;;5094733;28;20339;-72
2022/01/27 03:54:27;;;;;;;;;;;14.40;55.50;;;;;;5094443;28;19950;-72
2022/01/27 03:56:53;;;;;;;;;;;14.40;55.50;;;;;;5093012;28;19924;-72
2022/01/27 03:59:20;;;;;;;;;;;14.40;55.50;;;;;;5093269;28;19928;-72
2022/01/27 04:01:46;;;;;;;;;;;14.40;55.50;;;;;;5094764;28;19930;-72
2022/01/27 04:04:15;;;;;;;;;;;14.40;55.50;;;;;;5094375;28;20358;-72
2022/01/27 04:06:41;;;;;;;;;;;14.40;55.50;;;;;;5092889;28;19924;-72
2022/01/27 04:09:09;;;;;;;;;;;14.40;55.50;;;;;;5093107;28;19928;-72
2022/01/27 04:11:36;;;;;;;;;;;14.40;55.50;;;;;;5092998;28;19931;-72
2022/01/27 04:14:02;;;;;;;;;;;14.40;55.40;;;;;;5094131;28;19924;-72
2022/01/27 04:16:29;;;;;;;;;;;14.40;55.50;;;;;;5092676;28;20010;-72
2022/01/27 04:18:55;;;;;;;;;;;14.40;55.40;;;;;;5094104;28;19931;-72
2022/01/27 04:21:23;;;;;;;;;;;14.40;55.40;;;;;;5093928;28;19924;-73
2022/01/27 04:23:50;;;;;;;;;;;14.40;55.40;;;;;;5094007;28;20011;-72
2022/01/27 04:26:21;;;;;;;;;;;14.40;55.40;;;;;;5093976;28;20320;-71
2022/01/27 04:28:50;;;;;;;;;;;14.40;55.40;;;;;;5093073;28;19947;-72
2022/01/27 04:31:17;;;;;;;;;;;14.40;55.40;;;;;;5101106;28;19924;-72
2022/01/27 04:33:43;;;;;;;;;;;14.40;55.40;;;;;;5113839;28;19923;-72
2022/01/27 04:36:16;;;;;;;;;;;14.40;55.40;;;;;;5113191;28;20335;-72
2022/01/27 04:38:50;;;;;;;;;;;14.50;55.50;;;;;;5113253;28;19978;-72
2022/01/27 04:41:22;;;;;;;;;;;14.50;55.50;;;;;;5113070;28;19978;-72
2022/01/27 04:43:55;;;;;;;;;;;14.50;55.50;;;;;;5101880;28;19981;-72
2022/01/27 04:46:30;;;;;;;;;;;14.40;55.40;;;;;;5107549;28;20449;-72
2022/01/27 04:49:00;;;;;;;;;;;14.40;55.40;;;;;;5112781;28;20384;-72
2022/01/27 04:51:27;;;;;;;;;;;14.40;55.40;;;;;;5113820;28;19923;-72
2022/01/27 04:54:01;;;;;;;;;;;14.40;55.40;;;;;;5113594;28;19923;-70
2022/01/27 04:56:29;;;;;;;;;;;14.50;55.50;;;;;;5111986;28;19923;-72
2022/01/27 04:59:00;;;;;;;;;;;14.50;55.50;;;;;;5110945;28;20018;-69
2022/01/27 05:01:31;;;;;;;;;;;14.50;55.50;;;;;;5114247;28;19927;-70
2022/01/27 05:04:02;;;;;;;;;;;14.50;55.40;;;;;;5112599;28;19970;-70
2022/01/27 05:06:29;;;;;;;;;;;14.50;55.40;;;;;;5112418;28;20461;-70
2022/01/27 05:08:57;;;;;;;;;;;14.50;55.40;;;;;;5111367;28;20292;-70
2022/01/27 05:11:27;;;;;;;;;;;14.50;55.40;;;;;;5111976;28;20023;-70
2022/01/27 05:13:57;;;;;;;;;;;14.50;55.40;;;;;;5113567;28;19967;-70
2022/01/27 05:16:26;;;;;;;;;;;14.50;55.40;;;;;;5113488;28;19924;-70
2022/01/27 05:18:53;;;;;;;;;;;14.50;55.40;;;;;;5113515;28;20344;-70
2022/01/27 05:21:20;;;;;;;;;;;14.50;55.40;;;;;;5111917;28;19927;-72
2022/01/27 05:23:46;;;;;;;;;;;14.60;55.40;;;;;;5113098;28;19934;-74
2022/01/27 05:26:14;;;;;;;;;;;14.50;55.30;;;;;;5111813;28;20011;-70
2022/01/27 05:28:41;;;;;;;;;;;14.50;55.30;;;;;;5112330;28;20007;-69
2022/01/27 05:31:07;;;;;;;;;;;14.60;55.30;;;;;;5106030;28;19924;-70
2022/01/27 05:33:34;;;;;;;;;;;14.60;55.30;;;;;;5091408;28;19928;-70
2022/01/27 05:36:01;;;;;;;;;;;14.70;55.30;;;;;;5092340;28;19924;-70
2022/01/27 05:38:27;;;;;;;;;;;14.60;55.20;;;;;;5092849;28;19994;-69
2022/01/27 05:40:54;;;;;;;;;;;14.60;55.20;;;;;;5091371;28;20027;-70
2022/01/27 05:43:22;;;;;;;;;;;14.70;55.20;;;;;;5091580;28;19934;-70
2022/01/27 05:45:48;;;;;;;;;;;14.70;55.20;;;;;;5090951;28;19924;-70
2022/01/27 05:48:15;;;;;;;;;;;14.70;55.20;;;;;;5091405;28;20012;-70
2022/01/27 05:50:41;;;;;;;;;;;14.70;55.10;;;;;;5091469;28;20365;-69
2022/01/27 05:53:08;;;;;;;;;;;14.70;55.20;;;;;;5092477;28;20008;-70
2022/01/27 05:55:35;;;;;;;;;;;14.70;55.10;;;;;;5090804;28;19924;-70
2022/01/27 05:58:01;;;;;;;;;;;14.70;55.10;;;;;;5092170;28;19924;-70
2022/01/27 06:00:29;;;;;;;;;;;14.70;55.10;;;;;;5091379;28;20014;-70
2022/01/27 06:02:56;;;;;;;;;;;14.70;55.00;;;;;;5091343;28;20412;-70
2022/01/27 06:05:23;;;;;;;;;;;14.70;55.00;;;;;;5091071;28;19931;-70
2022/01/27 06:07:49;;;;;;;;;;;14.80;55.10;;;;;;5090434;28;19928;-69
2022/01/27 06:10:16;;;;;;;;;;;14.80;55.10;;;;;;5094419;28;19924;-69
2022/01/27 06:12:46;;;;;;;;;;;14.80;55.00;;;;;;5096539;28;19924;-70
2022/01/27 06:15:13;;;;;;;;;;;14.80;55.10;;;;;;5096285;28;19947;-70
2022/01/27 06:17:41;;;;;;;;;;;14.80;55.20;;;;;;5095195;28;20380;-70
2022/01/27 06:20:08;;;;;;;;;;;14.80;55.00;;;;;;5096494;28;20015;-70
2022/01/27 06:22:34;;;;;;;;;;;14.80;55.00;;;;;;5095060;28;19946;-69
2022/01/27 06:25:01;;;;;;;;;;;14.80;55.00;;;;;;5105156;28;19923;-70
2022/01/27 06:27:27;;;;;;;;;;;14.80;55.00;;;;;;5116378;28;19923;-70
2022/01/27 06:29:54;;;;;;;;;;;14.80;55.00;;;;;;5115490;28;19924;-71
2022/01/27 06:32:20;;;;;;;;;;;15.20;55.20;;;;;;5098944;28;19983;-69
2022/01/27 06:34:48;;;;;;;;;;;14.80;55.00;;;;;;5094604;28;19924;-70
2022/01/27 06:37:15;;;;;;;;;;;14.80;54.90;;;;;;5095598;28;20440;-70
2022/01/27 06:39:42;;;;;;;;;;;14.80;54.90;;;;;;5094892;28;19946;-70
2022/01/27 06:42:08;;;;;;;;;;;14.80;54.90;;;;;;5094783;28;19924;-71
2022/01/27 06:44:35;;;;;;;;;;;14.80;54.90;;;;;;5093107;28;20003;-72
2022/01/27 06:47:02;;;;;;;;;;;14.80;54.90;;;;;;5092591;28;20452;-72
2022/01/27 06:49:28;;;;;;;;;;;14.90;55.00;;;;;;5093455;28;20453;-72
2022/01/27 06:51:56;;;;;;;;;;;14.90;55.00;;;;;;5094511;28;20018;-72
2022/01/27 06:54:23;;;;;;;;;;;14.90;55.00;;;;;;5094106;28;19924;-72
2022/01/27 06:56:49;;;;;;;;;;;14.90;55.00;;;;;;5093758;28;19930;-72
2022/01/27 06:59:16;;;;;;;;;;;14.90;54.90;;;;;;5094514;28;20007;-73
2022/01/27 07:01:42;;;;;;;;;;;14.90;54.90;;;;;;5095632;28;20034;-72
2022/01/27 07:04:09;;;;;;;;;;;14.90;54.90;;;;;;5094526;28;19924;-72
2022/01/27 07:06:36;;;;;;;;;;;14.90;54.90;;;;;;5095516;28;20014;-72
2022/01/27 07:09:04;;;;;;;;;;;14.90;54.90;;;;;;5094543;28;19969;-73
2022/01/27 07:11:31;;;;;;;;;;;14.90;54.90;;;;;;5094202;28;19931;-72
2022/01/27 07:13:57;;;;;;;;;;;14.90;54.90;;;;;;5095568;28;20010;-72
2022/01/27 07:16:24;;;;;;;;;;;14.90;54.90;;;;;;5093851;28;20015;-72
2022/01/27 07:18:52;;;;;;;;;;;14.90;54.90;;;;;;5094114;28;19999;-72
2022/01/27 07:21:18;;;;;;;;;;;14.90;54.90;;;;;;5093216;28;19977;-72
2022/01/27 07:23:45;;;;;;;;;;;15.00;54.90;;;;;;5094188;28;20010;-72
2022/01/27 07:26:14;;;;;;;;;;;14.90;54.80;;;;;;5094868;28;19930;-73
2022/01/27 07:28:40;;;;;;;;;;;16.80;55.90;;;;;;5093941;28;20381;-71
2022/01/27 07:31:07;;;;;;;;;;;14.90;54.90;;;;;;5099961;28;20018;-70
2022/01/27 07:33:33;;;;;;;;;;;15.00;55.00;;;;;;5114380;28;20003;-71
2022/01/27 07:36:00;;;;;;;;;;;15.00;54.90;;;;;;5113979;28;19930;-71
2022/01/27 07:38:27;;;;;;;;;;;15.00;55.00;;;;;;5114311;28;19924;-70
2022/01/27 07:40:53;;;;;;;;;;;15.00;54.90;;;;;;5114973;28;19931;-70
2022/01/27 07:43:21;;;;;;;;;;;15.00;55.00;;;;;;5114213;28;20014;-70
2022/01/27 07:45:48;;;;;;;;;;;15.00;55.30;;;;;;5113900;28;20456;-73
2022/01/27 07:48:15;;;;;;;;;;;15.00;55.20;;;;;;5114060;28;20354;-72
2022/01/27 07:50:41;;;;;;;;;;;15.10;55.10;;;;;;5113866;28;20015;-73
2022/01/27 07:53:08;;;;;;;;;;;15.10;55.70;;;;;;5115074;28;19982;-72
2022/01/27 07:55:34;;;;;;;;;;;15.10;55.00;;;;;;5113558;28;19923;-73
2022/01/27 07:58:01;;;;;;;;;;;15.10;55.00;;;;;;5113980;28;19930;-72
2022/01/27 08:00:29;;;;;;;;;;;15.20;55.00;;;;;;5109608;28;19963;-72
2022/01/27 08:02:55;;;;;;;;;;;15.20;55.00;;;;;;5093529;28;20355;-72
2022/01/27 08:05:22;;;;;;;;;;;15.20;55.00;;;;;;5093113;28;19982;-73
2022/01/27 08:07:48;;;;;;;;;;;15.20;55.00;;;;;;5094428;28;20019;-73
2022/01/27 08:10:15;;;;;;;;;;;15.20;55.00;;;;;;5093127;28;20349;-72
2022/01/27 08:12:42;;;;;;;;;;;15.20;55.00;;;;;;5092873;28;19975;-73
2022/01/27 08:15:09;;;;;;;;;;;15.10;54.90;;;;;;5093163;28;19964;-72
2022/01/27 08:17:37;;;;;;;;;;;15.10;54.90;;;;;;5093102;28;20007;-72
2022/01/27 08:20:03;;;;;;;;;;;15.20;55.00;;;;;;5094230;28;20353;-72
2022/01/27 08:22:32;;;;;;;;;;;15.10;54.90;;;;;;5092954;28;19967;-73
2022/01/27 08:24:58;;;;;;;;;;;15.10;54.90;;;;;;5097901;28;20016;-72
2022/01/27 08:27:29;;;;;;;;;;;15.10;54.90;;;;;;5103435;28;19974;-72
2022/01/27 08:30:01;;;;;;;;;;;15.10;55.00;;;;;;5102558;28;19950;-72
2022/01/27 08:32:39;;;;;;;;;;;15.10;54.90;;;;;;5100990;28;19935;-72
2022/01/27 08:35:10;;;;;;;;;;;15.10;55.00;;;;;;5106256;28;20377;-72
2022/01/27 08:37:37;;;;;;;;;;;15.10;55.50;;;;;;5110595;28;19950;-72
2022/01/27 08:40:04;;;;;;;;;;;15.10;55.00;;;;;;5111049;28;20034;-72
2022/01/27 08:42:30;;;;;;;;;;;15.10;55.00;;;;;;5110706;28;19924;-72
2022/01/27 08:44:57;;;;;;;;;;;15.10;55.00;;;;;;5113024;28;20014;-72
2022/01/27 08:47:23;;;;;;;;;;;15.10;55.00;;;;;;5106738;28;19924;-73
2022/01/27 08:49:50;;;;;;;;;;;15.10;55.00;;;;;;5096304;28;20011;-73
2022/01/27 08:52:18;;;;;;;;;;;15.10;55.00;;;;;;5092523;28;19963;-73
2022/01/27 08:54:44;;;;;;;;;;;15.10;55.00;;;;;;5092474;28;19967;-73
2022/01/27 08:57:12;;;;;;;;;;;15.10;55.00;;;;;;5092944;28;20399;-73
2022/01/27 08:59:39;;;;;;;;;;;15.10;55.00;;;;;;5091316;28;19935;-72
2022/01/27 09:02:06;;;;;;;;;;;15.10;55.00;;;;;;5092129;28;19943;-73
2022/01/27 09:04:32;;;;;;;;;;;15.10;55.00;;;;;;5092245;28;20010;-73
2022/01/27 09:06:59;;;;;;;;;;;15.10;55.00;;;;;;5092063;28;20010;-73
2022/01/27 09:09:27;;;;;;;;;;;15.20;55.10;;;;;;5093128;28;19924;-73
2022/01/27 09:11:55;;;;;;;;;;;15.20;55.00;;;;;;5091829;28;20349;-73
2022/01/27 09:14:22;;;;;;;;;;;15.10;55.00;;;;;;5091890;28;19931;-74
2022/01/27 09:16:49;;;;;;;;;;;15.10;55.00;;;;;;5091676;28;19928;-72
2022/01/27 09:19:18;;;;;;;;;;;15.10;55.00;;;;;;5092847;28;19974;-73
2022/01/27 09:21:46;;;;;;;;;;;15.10;55.00;;;;;;5092181;28;19931;-73
2022/01/27 09:24:15;;;;;;;;;;;15.10;55.00;;;;;;5092946;28;19930;-74
2022/01/27 09:26:51;;;;;;;;;;;15.10;55.00;;;;;;5091802;28;19924;-73
2022/01/27 09:29:18;;;;;;;;;;;15.10;55.00;;;;;;5092008;28;20030;-72
2022/01/27 09:31:45;;;;;;;;;;;15.10;55.00;;;;;;5102526;28;19928;-73
2022/01/27 09:34:11;;;;;;;;;;;15.10;55.10;;;;;;5103553;28;19930;-72
2022/01/27 09:36:38;;;;;;;;;;;15.10;55.00;;;;;;5098131;28;19924;-73
2022/01/27 09:39:04;;;;;;;;;;;15.10;55.00;;;;;;5100671;28;19924;-73
2022/01/27 09:41:31;;;;;;;;;;;15.20;55.10;;;;;;5098931;28;20312;-73
2022/01/27 09:44:01;;;;;;;;;;;15.10;55.00;;;;;;5098619;28;20006;-73
2022/01/27 09:46:27;;;;;;;;;;;15.20;55.10;;;;;;5091663;28;19928;-73
2022/01/27 09:48:55;;;;;;;;;;;15.20;55.10;;;;;;5092188;28;19931;-73
2022/01/27 09:51:37;;;;;;;;;;;15.10;55.00;;;;;;5100415;28;20024;-73
2022/01/27 09:54:03;;;;;;;;;;;15.20;55.10;;;;;;5090773;28;20370;-73
2022/01/27 09:56:30;;;;;;;;;;;15.10;55.00;;;;;;5101766;28;19931;-73
2022/01/27 09:58:57;;;;;;;;;;;15.20;55.10;;;;;;5117569;28;20023;-73
2022/01/27 10:01:24;;;;;;;;;;;15.20;55.10;;;;;;5102576;28;20387;-73
2022/01/27 10:03:52;;;;;;;;;;;15.20;55.10;;;;;;5093037;28;19975;-73
2022/01/27 10:06:19;;;;;;;;;;;15.10;55.10;;;;;;5102488;28;20022;-73
2022/01/27 10:08:45;;;;;;;;;;;15.20;55.10;;;;;;5092899;28;19982;-73
2022/01/27 10:11:15;;;;;;;;;;;15.10;55.10;;;;;;5093266;28;19975;-72
2022/01/27 10:13:44;;;;;;;;;;;15.20;55.10;;;;;;5094304;28;20004;-73
2022/01/27 10:16:17;;;;;;;;;;;15.10;55.10;;;;;;5107583;28;19923;-73
2022/01/27 10:18:45;;;;;;;;;;;15.10;55.10;;;;;;5099166;28;20010;-73
2022/01/27 10:21:12;;;;;;;;;;;15.10;55.10;;;;;;5090891;28;19924;-73
2022/01/27 10:23:39;;;;;;;;;;;15.10;55.20;;;;;;5091759;28;19928;-72
2022/01/27 10:26:12;;;;;;;;;;;15.10;55.20;;;;;;5093545;28;19963;-73
2022/01/27 10:28:45;;;;;;;;;;;15.10;55.20;;;;;;5111284;28;19934;-73
2022/01/27 10:31:12;;;;;;;;;;;15.10;55.20;;;;;;5111250;28;20368;-73
2022/01/27 10:33:42;;;;;;;;;;;15.10;55.20;;;;;;5105320;28;19971;-72
2022/01/27 10:36:20;;;;;;;;;;;15.10;55.20;;;;;;5099467;28;19928;-73
2022/01/27 10:38:47;;;;;;;;;;;15.10;55.20;;;;;;5096624;28;20007;-71
2022/01/27 10:41:13;;;;;;;;;;;15.00;55.20;;;;;;5091078;28;20456;-73
2022/01/27 10:43:40;;;;;;;;;;;15.00;55.20;;;;;;5090582;28;20002;-72
2022/01/27 10:46:11;;;;;;;;;;;15.00;55.30;;;;;;5092156;28;19924;-72
2022/01/27 10:48:40;;;;;;;;;;;15.00;55.30;;;;;;5090790;28;19931;-70
2022/01/27 10:51:13;;;;;;;;;;;15.00;55.30;;;;;;5091128;28;20556;-70
2022/01/27 10:53:46;;;;;;;;;;;15.00;55.40;;;;;;5100557;28;19973;-71
2022/01/27 10:56:15;;;;;;;;;;;15.00;55.40;;;;;;5108592;28;19924;-69
2022/01/27 10:58:42;;;;;;;;;;;15.00;55.40;;;;;;5099497;28;20019;-71
2022/01/27 11:01:09;;;;;;;;;;;15.00;56.00;;;;;;5113432;28;20459;-70
2022/01/27 11:03:36;;;;;;;;;;;15.00;55.50;;;;;;5112051;28;20010;-72
2022/01/27 11:06:08;;;;;;;;;;;14.90;55.40;;;;;;5103647;28;19924;-70
2022/01/27 11:08:36;;;;;;;;;;;14.90;55.50;;;;;;5100409;28;20015;-70
2022/01/27 11:11:04;;;;;;;;;;;14.90;55.50;;;;;;5104481;28;19927;-70
2022/01/27 11:13:33;;;;;;;;;;;14.90;55.50;;;;;;5112573;28;20010;-71
2022/01/27 11:15:59;;;;;;;;;;;14.90;55.50;;;;;;5110321;28;19992;-70
2022/01/27 11:18:28;;;;;;;;;;;14.90;55.50;;;;;;5114751;28;20355;-73
2022/01/27 11:20:58;;;;;;;;;;;14.90;55.50;;;;;;5114733;28;20389;-71
2022/01/27 11:26:08;;;;;;;;;;;14.80;55.50;;;;;;5102895;28;19920;-71
2022/01/27 11:28:35;;;;;;;;;;;14.80;55.60;;;;;;5115675;28;20010;-71
2022/01/27 11:31:07;;;;;;;;;;;14.80;55.60;;;;;;5115542;28;20015;-70
2022/01/27 11:33:34;;;;;;;;;;;14.80;55.60;;;;;;5114160;28;19924;-70
2022/01/27 11:36:08;;;;;;;;;;;14.80;55.60;;;;;;5113751;28;19976;-71
2022/01/27 11:38:34;;;;;;;;;;;14.80;55.70;;;;;;5114531;28;20022;-69
2022/01/27 11:41:01;;;;;;;;;;;14.70;55.60;;;;;;5115302;28;20018;-70
2022/01/27 11:43:33;;;;;;;;;;;14.70;55.60;;;;;;5115281;28;19957;-70
2022/01/27 11:46:11;;;;;;;;;;;14.70;55.60;;;;;;5113885;28;20346;-70
2022/01/27 11:48:38;;;;;;;;;;;14.70;55.70;;;;;;5114267;28;20015;-70
2022/01/27 11:51:10;;;;;;;;;;;14.70;55.70;;;;;;5114250;28;20399;-72
2022/01/27 11:53:38;;;;;;;;;;;14.70;56.20;;;;;;5111847;28;20400;-72
2022/01/27 11:56:05;;;;;;;;;;;14.70;55.70;;;;;;5098638;28;19930;-70
2022/01/27 11:58:37;;;;;;;;;;;14.70;55.70;;;;;;5093599;28;20023;-69
2022/01/27 12:01:07;;;;;;;;;;;14.70;55.70;;;;;;5095922;28;20003;-70
2022/01/27 12:03:34;;;;;;;;;;;14.70;55.70;;;;;;5102175;28;19924;-70
2022/01/27 12:06:20;;;;;;;;;;;14.70;55.80;;;;;;5106358;28;19944;-71
2022/01/27 12:08:46;;;;;;;;;;;14.70;55.70;;;;;;5103428;28;20292;-70
2022/01/27 12:11:32;;;;;;;;;;;14.70;55.70;;;;;;5092899;28;20006;-69
2022/01/27 12:14:03;;;;;;;;;;;14.70;55.70;;;;;;5092842;28;20420;-70
2022/01/27 12:19:10;;;;;;;;;;;14.60;55.70;;;;;;5109711;27;19920;-69
2022/01/27 12:21:38;;;;;;;;;;;14.70;55.80;;;;;;5092619;28;19975;-70
2022/01/27 12:24:15;;;;;;;;;;;14.70;55.80;;;;;;5092903;28;20389;-70
2022/01/27 12:26:45;;;;;;;;;;;14.60;55.70;;;;;;5101894;28;19928;-70
2022/01/27 12:29:13;;;;;;;;;;;14.70;55.80;;;;;;5112945;28;19970;-70
2022/01/27 12:31:40;;;;;;;;;;;14.70;55.80;;;;;;5112482;28;20015;-70
2022/01/27 12:34:06;;;;;;;;;;;14.70;55.80;;;;;;5113038;28;19924;-70
2022/01/27 12:36:33;;;;;;;;;;;14.70;55.80;;;;;;5112771;28;20403;-69
2022/01/27 12:38:59;;;;;;;;;;;14.70;55.80;;;;;;5107722;28;19998;-70
2022/01/27 12:41:27;;;;;;;;;;;14.60;55.80;;;;;;5095681;28;20722;-72
2022/01/27 12:43:53;;;;;;;;;;;14.70;56.40;;;;;;5103201;28;19923;-70
2022/01/27 12:46:21;;;;;;;;;;;14.70;55.80;;;;;;5101532;28;20015;-70
2022/01/27 12:48:50;;;;;;;;;;;14.70;55.80;;;;;;5101395;28;20010;-70
2022/01/27 12:51:23;;;;;;;;;;;14.70;55.80;;;;;;5103061;28;19924;-70
2022/01/27 12:53:59;;;;;;;;;;;14.70;55.80;;;;;;5102381;28;19924;-70
2022/01/27 12:56:25;;;;;;;;;;;14.60;55.70;;;;;;5102718;28;19980;-70
2022/01/27 12:58:52;;;;;;;;;;;14.70;55.80;;;;;;5103100;28;19932;-71
2022/01/27 13:01:19;;;;;;;;;;;14.70;55.80;;;;;;5100972;28;20473;-71
2022/01/27 13:04:00;;;;;;;;;;;14.70;55.80;;;;;;5102248;28;19927;-70
2022/01/27 13:06:28;;;;;;;;;;;14.60;55.80;;;;;;5090594;28;20007;-70
2022/01/27 13:09:09;;;;;;;;;;;14.60;55.80;;;;;;5098345;28;19924;-71
2022/01/27 13:11:39;;;;;;;;;;;14.60;55.80;;;;;;5091696;28;20011;-70
2022/01/27 13:14:06;;;;;;;;;;;14.70;55.90;;;;;;5092606;28;19924;-70
2022/01/27 13:16:39;;;;;;;;;;;14.70;55.90;;;;;;5099712;28;20452;-70
2022/01/27 13:19:18;;;;;;;;;;;14.70;55.90;;;;;;5096100;28;19970;-70
2022/01/27 13:21:50;;;;;;;;;;;14.70;55.90;;;;;;5102296;28;19971;-70
2022/01/27 13:24:18;;;;;;;;;;;14.70;55.80;;;;;;5102084;28;19932;-70
2022/01/27 13:26:46;;;;;;;;;;;14.80;55.90;;;;;;5101471;28;19931;-70
2022/01/27 13:29:13;;;;;;;;;;;14.80;55.80;;;;;;5100200;28;19924;-71
2022/01/27 13:31:39;;;;;;;;;;;14.90;55.80;;;;;;5105180;28;20026;-73
2022/01/27 13:34:07;;;;;;;;;;;14.90;55.70;;;;;;5112595;28;20027;-71
2022/01/27 13:36:35;;;;;;;;;;;14.90;55.60;;;;;;5108434;28;20420;-70
2022/01/27 13:39:11;;;;;;;;;;;15.00;55.70;;;;;;5099826;28;20007;-70
2022/01/27 13:41:38;;;;;;;;;;;15.00;55.60;;;;;;5100841;28;19972;-71
2022/01/27 13:44:05;;;;;;;;;;;15.00;55.60;;;;;;5102019;28;19966;-70
2022/01/27 13:46:36;;;;;;;;;;;15.00;55.50;;;;;;5096992;28;19939;-72
2022/01/27 13:49:08;;;;;;;;;;;15.10;55.50;;;;;;5101548;28;19974;-70
2022/01/27 13:51:36;;;;;;;;;;;15.10;55.50;;;;;;5102140;28;19930;-70
2022/01/27 13:54:03;;;;;;;;;;;15.10;55.50;;;;;;5100907;28;20417;-70
2022/01/27 13:56:39;;;;;;;;;;;15.20;55.50;;;;;;5101118;28;20007;-70
2022/01/27 13:59:11;;;;;;;;;;;15.20;55.60;;;;;;5099954;28;19924;-70
2022/01/27 14:01:37;;;;;;;;;;;15.20;55.40;;;;;;5097897;28;19966;-69
2022/01/27 14:04:04;;;;;;;;;;;15.20;55.30;;;;;;5102699;28;20329;-69
2022/01/27 14:06:32;;;;;;;;;;;15.30;55.40;;;;;;5099688;28;20003;-70
2022/01/27 14:09:01;;;;;;;;;;;15.30;55.30;;;;;;5100517;28;20022;-70
2022/01/27 14:11:34;;;;;;;;;;;15.30;55.30;;;;;;5102009;28;19924;-70
2022/01/27 14:14:01;;;;;;;;;;;15.30;55.20;;;;;;5097050;28;19977;-70
2022/01/27 14:16:27;;;;;;;;;;;15.30;55.20;;;;;;5100004;28;20396;-68
2022/01/27 14:18:54;;;;;;;;;;;15.30;55.20;;;;;;5092087;28;20015;-69
2022/01/27 14:21:21;;;;;;;;;;;15.40;55.80;;;;;;5091113;28;19924;-71
2022/01/27 14:24:08;;;;;;;;;;;15.40;55.20;;;;;;5090886;28;20011;-69
2022/01/27 14:26:39;;;;;;;;;;;15.40;55.20;;;;;;5098364;28;19931;-69
2022/01/27 14:29:07;;;;;;;;;;;15.40;55.20;;;;;;5111571;28;19963;-70
2022/01/27 14:31:34;;;;;;;;;;;15.40;55.20;;;;;;5114039;28;19936;-68
2022/01/27 14:34:00;;;;;;;;;;;15.40;55.20;;;;;;5111369;28;19930;-70
2022/01/27 14:36:27;;;;;;;;;;;15.50;55.80;;;;;;5106674;28;20020;-69
2022/01/27 14:38:55;;;;;;;;;;;15.50;55.20;;;;;;5105108;28;19928;-70
2022/01/27 14:41:21;;;;;;;;;;;15.50;55.20;;;;;;5106590;28;20007;-70
2022/01/27 14:43:48;;;;;;;;;;;15.50;55.20;;;;;;5115476;28;19927;-70